Time;durP1;ratioP1;P1;durP2;ratioP2;P2;SDS_P1;SDS_P2;PMS_P1;PMS_P2;Temp;Humidity;BMP_temperature;BMP_pressure;BME280_temperature;BME280_humidity;BME280_pressure;Samples;Min_cycle;Max_cycle;Signal;HPM_P1;HPM_P2
2021/03/17 00:00:07;;;;;;;8.47;7.73;;;;;;;;;;5037899;28;20434;-14
2021/03/17 00:02:53;;;;;;;7.67;7.07;;;;;;;;;;5041220;28;20564;-13
2021/03/17 00:05:40;;;;;;;8.70;7.80;;;;;;;;;;5038524;28;20454;-14
2021/03/17 00:08:26;;;;;;;9.87;7.53;;;;;;;;;;5020784;28;20442;-14
2021/03/17 00:11:12;;;;;;;7.30;6.70;;;;;;;;;;5037988;28;20454;-15
2021/03/17 00:13:58;;;;;;;7.43;6.83;;;;;;;;;;5034178;28;20443;-14
2021/03/17 00:16:43;;;;;;;8.43;7.73;;;;;;;;;;5034097;28;20450;-13
2021/03/17 00:19:29;;;;;;;9.83;8.90;;;;;;;;;;5037994;28;20729;-14
2021/03/17 00:22:16;;;;;;;11.30;7.17;;;;;;;;;;5034399;28;20505;-11
2021/03/17 00:25:02;;;;;;;9.60;8.53;;;;;;;;;;5030713;28;20439;-12
2021/03/17 00:27:48;;;;;;;8.17;7.50;;;;;;;;;;5030387;28;20457;-12
2021/03/17 00:30:37;;;;;;;9.57;8.33;;;;;;;;;;5031340;28;20540;-11
2021/03/17 00:33:23;;;;;;;8.83;7.63;;;;;;;;;;5032235;28;20471;-11
2021/03/17 00:36:09;;;;;;;8.60;7.80;;;;;;;;;;5032085;28;20462;-12
2021/03/17 00:38:55;;;;;;;9.37;8.47;;;;;;;;;;5034180;28;20442;-11
2021/03/17 00:41:41;;;;;;;12.37;8.90;;;;;;;;;;5032568;28;20438;-11
2021/03/17 00:44:27;;;;;;;9.40;8.47;;;;;;;;;;5033268;28;20481;-12
2021/03/17 00:47:12;;;;;;;9.20;8.17;;;;;;;;;;5032174;28;20496;-11
2021/03/17 00:49:40;;;;;;;8.40;7.70;;;;;;;;;;5032418;28;20608;-12
2021/03/17 00:52:07;;;;;;;9.03;8.33;;;;;;;;;;5030042;28;20840;-12
2021/03/17 00:54:54;;;;;;;8.73;7.93;;;;;;;;;;5033443;28;20473;-12
2021/03/17 00:57:47;;;;;;;9.00;8.20;;;;;;;;;;5013451;28;20439;-11
2021/03/17 01:00:15;;;;;;;9.53;7.93;;;;;;;;;;5032176;28;20721;-11
2021/03/17 01:02:42;;;;;;;8.70;7.90;;;;;;;;;;5030787;28;20545;-10
2021/03/17 01:05:28;;;;;;;8.97;8.37;;;;;;;;;;5032307;28;20501;-12
2021/03/17 01:07:55;;;;;;;8.10;7.50;;;;;;;;;;5032453;28;20438;-11
2021/03/17 01:10:24;;;;;;;8.43;7.73;;;;;;;;;;5030708;28;20512;-10
2021/03/17 01:12:51;;;;;;;9.83;8.90;;;;;;;;;;5030375;28;20474;-11
2021/03/17 01:15:21;;;;;;;8.50;7.80;;;;;;;;;;5032236;28;20445;-10
2021/03/17 01:17:48;;;;;;;7.97;7.27;;;;;;;;;;5029984;28;20442;-10
2021/03/17 01:20:15;;;;;;;8.90;8.30;;;;;;;;;;5028098;28;20742;-11
2021/03/17 01:22:42;;;;;;;8.90;8.07;;;;;;;;;;5029339;28;20442;-10
2021/03/17 01:25:11;;;;;;;9.00;8.20;;;;;;;;;;5029094;28;20850;-10
2021/03/17 01:27:39;;;;;;;8.33;7.63;;;;;;;;;;5028298;28;20446;-11
2021/03/17 01:30:07;;;;;;;7.73;7.13;;;;;;;;;;5027201;28;20930;-11
2021/03/17 01:32:34;;;;;;;7.70;7.10;;;;;;;;;;5027240;28;20459;-11
2021/03/17 01:35:01;;;;;;;8.67;8.07;;;;;;;;;;5026682;28;20435;-10
2021/03/17 01:37:29;;;;;;;9.13;8.43;;;;;;;;;;5027564;28;20442;-11
2021/03/17 01:39:55;;;;;;;7.67;7.17;;;;;;;;;;5029748;28;20439;-11
2021/03/17 01:42:22;;;;;;;7.70;7.20;;;;;;;;;;5028306;28;20758;-11
2021/03/17 01:44:50;;;;;;;7.77;7.17;;;;;;;;;;5027772;28;20442;-10
2021/03/17 01:47:17;;;;;;;7.10;6.60;;;;;;;;;;5029487;28;20439;-10
2021/03/17 01:49:44;;;;;;;8.77;8.03;;;;;;;;;;5029084;28;20923;-10
2021/03/17 01:52:11;;;;;;;7.40;6.77;;;;;;;;;;5029311;28;20486;-10
2021/03/17 01:54:38;;;;;;;7.47;6.93;;;;;;;;;;5030299;28;20439;-11
2021/03/17 01:57:06;;;;;;;7.43;6.93;;;;;;;;;;5030070;28;20535;-11
2021/03/17 01:59:33;;;;;;;8.00;7.37;;;;;;;;;;5031837;28;20443;-11
2021/03/17 02:02:02;;;;;;;8.10;7.30;;;;;;;;;;5030604;28;20883;-11
2021/03/17 02:04:29;;;;;;;8.00;7.40;;;;;;;;;;5028172;28;20462;-10
2021/03/17 02:06:56;;;;;;;8.20;7.50;;;;;;;;;;5028828;28;20454;-11
2021/03/17 02:09:23;;;;;;;8.30;7.60;;;;;;;;;;5029952;28;20908;-10
2021/03/17 02:11:53;;;;;;;7.60;6.90;;;;;;;;;;5030635;28;21011;-11
2021/03/17 02:14:27;;;;;;;7.33;6.83;;;;;;;;;;5030746;28;20443;-12
2021/03/17 02:16:56;;;;;;;7.93;7.33;;;;;;;;;;5028822;28;20435;-12
2021/03/17 02:19:40;;;;;;;6.70;6.30;;;;;;;;;;5027702;28;20438;-11
2021/03/17 02:22:22;;;;;;;7.30;6.80;;;;;;;;;;5029507;28;20474;-11
2021/03/17 02:24:52;;;;;;;7.30;6.80;;;;;;;;;;5013362;28;20451;-10
2021/03/17 02:27:33;;;;;;;8.63;8.03;;;;;;;;;;5029657;28;20446;-11
2021/03/17 02:30:08;;;;;;;7.80;7.30;;;;;;;;;;5016833;28;20541;-10
2021/03/17 02:32:45;;;;;;;10.43;7.17;;;;;;;;;;5031269;28;20574;-11
2021/03/17 02:35:13;;;;;;;7.77;7.17;;;;;;;;;;5030911;28;20435;-12
2021/03/17 02:37:41;;;;;;;7.10;6.60;;;;;;;;;;5030330;28;20434;-11
2021/03/17 02:40:10;;;;;;;7.20;6.70;;;;;;;;;;5028704;28;20690;-12
2021/03/17 02:42:38;;;;;;;6.53;6.13;;;;;;;;;;5031774;28;20439;-10
2021/03/17 02:45:07;;;;;;;5.70;5.40;;;;;;;;;;5033605;28;20744;-10
2021/03/17 02:47:39;;;;;;;6.23;5.77;;;;;;;;;;5034429;28;20438;-11
2021/03/17 02:50:08;;;;;;;6.70;6.10;;;;;;;;;;5034065;28;20780;-11
2021/03/17 02:52:37;;;;;;;6.93;6.43;;;;;;;;;;5032084;28;20475;-11
2021/03/17 02:55:04;;;;;;;6.63;6.20;;;;;;;;;;5031083;28;20445;-11
2021/03/17 02:57:34;;;;;;;6.00;5.50;;;;;;;;;;5034265;28;20450;-12
2021/03/17 03:00:02;;;;;;;6.07;5.67;;;;;;;;;;5035013;28;20441;-11
2021/03/17 03:02:30;;;;;;;6.63;6.13;;;;;;;;;;5033490;28;20434;-10
2021/03/17 03:04:57;;;;;;;7.37;6.87;;;;;;;;;;5032085;28;20623;-12
2021/03/17 03:07:25;;;;;;;6.47;5.97;;;;;;;;;;5033452;28;20797;-11
2021/03/17 03:09:53;;;;;;;6.67;6.23;;;;;;;;;;5034561;28;20465;-11
2021/03/17 03:12:20;;;;;;;7.33;6.83;;;;;;;;;;5034093;28;20462;-10
2021/03/17 03:14:47;;;;;;;7.50;7.00;;;;;;;;;;5033048;28;20442;-11
2021/03/17 03:17:15;;;;;;;7.50;7.03;;;;;;;;;;5032198;28;20458;-11
2021/03/17 03:19:45;;;;;;;6.90;6.50;;;;;;;;;;5033885;28;20446;-11
2021/03/17 03:22:13;;;;;;;7.87;7.27;;;;;;;;;;5034398;28;20489;-11
2021/03/17 03:24:41;;;;;;;6.80;6.40;;;;;;;;;;5035079;28;20456;-11
2021/03/17 03:27:09;;;;;;;7.63;7.13;;;;;;;;;;5033250;28;20446;-11
2021/03/17 03:29:37;;;;;;;8.33;7.73;;;;;;;;;;5013939;28;20427;-11
2021/03/17 03:32:05;;;;;;;7.10;6.50;;;;;;;;;;5033219;28;20462;-12
2021/03/17 03:34:32;;;;;;;7.83;7.23;;;;;;;;;;5033839;28;20443;-10
2021/03/17 03:36:59;;;;;;;8.30;7.60;;;;;;;;;;5034038;28;20472;-11
2021/03/17 03:39:26;;;;;;;6.70;6.23;;;;;;;;;;5032913;28;20462;-11
2021/03/17 03:41:54;;;;;;;7.90;7.30;;;;;;;;;;5032373;28;20501;-11
2021/03/17 03:44:21;;;;;;;7.60;7.00;;;;;;;;;;5033220;28;20493;-11
2021/03/17 03:46:49;;;;;;;8.60;8.00;;;;;;;;;;5032361;28;20439;-10
2021/03/17 03:49:16;;;;;;;7.00;6.50;;;;;;;;;;5033668;28;20783;-12
2021/03/17 03:51:45;;;;;;;7.30;6.80;;;;;;;;;;5033007;28;20470;-10
2021/03/17 03:54:17;;;;;;;7.83;7.23;;;;;;;;;;5033268;28;20434;-11
2021/03/17 03:56:49;;;;;;;7.83;7.20;;;;;;;;;;5032600;28;20457;-11
2021/03/17 03:59:20;;;;;;;7.90;7.40;;;;;;;;;;5013963;28;20442;-11
2021/03/17 04:01:49;;;;;;;7.63;7.13;;;;;;;;;;5033487;28;20795;-11
2021/03/17 04:04:17;;;;;;;8.07;7.50;;;;;;;;;;5033121;28;20435;-12
2021/03/17 04:06:47;;;;;;;9.20;8.57;;;;;;;;;;5013862;28;20450;-10
2021/03/17 04:09:15;;;;;;;7.87;7.30;;;;;;;;;;5013965;28;20866;-11
2021/03/17 04:11:44;;;;;;;8.10;7.50;;;;;;;;;;5032465;28;20446;-11
2021/03/17 04:14:12;;;;;;;8.60;7.90;;;;;;;;;;5032352;28;20827;-10
2021/03/17 04:16:40;;;;;;;8.43;7.77;;;;;;;;;;5012451;28;20741;-11
2021/03/17 04:19:09;;;;;;;9.00;8.23;;;;;;;;;;5030906;28;20426;-11
2021/03/17 04:21:38;;;;;;;8.33;7.73;;;;;;;;;;5030790;28;20565;-10
2021/03/17 04:24:06;;;;;;;9.23;8.50;;;;;;;;;;5033445;28;20427;-11
2021/03/17 04:26:34;;;;;;;9.87;8.90;;;;;;;;;;5030831;28;20986;-10
2021/03/17 04:29:02;;;;;;;8.77;8.17;;;;;;;;;;5012021;28;20435;-11
2021/03/17 04:31:29;;;;;;;10.20;9.40;;;;;;;;;;5031667;28;20446;-11
2021/03/17 04:33:57;;;;;;;9.00;8.40;;;;;;;;;;5031626;28;20459;-11
2021/03/17 04:36:25;;;;;;;9.60;8.90;;;;;;;;;;5029456;28;20463;-11
2021/03/17 04:38:53;;;;;;;9.90;9.10;;;;;;;;;;5029166;28;20720;-12
2021/03/17 04:41:20;;;;;;;9.90;9.10;;;;;;;;;;5027566;28;20769;-10
2021/03/17 04:43:48;;;;;;;10.37;9.47;;;;;;;;;;5031106;28;20441;-10
2021/03/17 04:46:15;;;;;;;9.60;8.90;;;;;;;;;;5030584;28;20885;-11
2021/03/17 04:48:44;;;;;;;8.60;8.00;;;;;;;;;;5030615;28;20819;-10
2021/03/17 04:51:11;;;;;;;9.50;8.80;;;;;;;;;;5029081;28;20753;-11
2021/03/17 04:53:39;;;;;;;9.03;8.30;;;;;;;;;;5027905;28;20458;-10
2021/03/17 04:56:07;;;;;;;8.97;8.20;;;;;;;;;;5030794;28;20427;-10
2021/03/17 04:58:36;;;;;;;10.10;9.30;;;;;;;;;;5034341;28;20451;-12
2021/03/17 05:01:05;;;;;;;10.47;9.50;;;;;;;;;;5033353;28;20438;-11
2021/03/17 05:03:33;;;;;;;9.93;9.03;;;;;;;;;;5029875;28;20434;-11
2021/03/17 05:06:00;;;;;;;10.10;9.30;;;;;;;;;;5028859;28;20869;-11
2021/03/17 05:08:28;;;;;;;10.27;9.67;;;;;;;;;;5027533;28;20443;-9
2021/03/17 05:10:57;;;;;;;11.03;10.20;;;;;;;;;;5027057;28;20626;-11
2021/03/17 05:13:24;;;;;;;11.40;10.20;;;;;;;;;;5029653;28;20965;-10
2021/03/17 05:15:51;;;;;;;10.07;9.27;;;;;;;;;;5028276;28;20435;-9
2021/03/17 05:18:20;;;;;;;10.50;9.60;;;;;;;;;;5026943;28;20438;-11
2021/03/17 05:20:48;;;;;;;9.50;8.73;;;;;;;;;;5025498;28;20992;-11
2021/03/17 05:23:17;;;;;;;11.53;10.50;;;;;;;;;;5008418;28;20498;-11
2021/03/17 05:25:44;;;;;;;12.37;11.37;;;;;;;;;;5011463;28;20535;-10
2021/03/17 05:28:13;;;;;;;12.13;10.97;;;;;;;;;;5029070;28;20693;-12
2021/03/17 05:30:41;;;;;;;14.00;12.80;;;;;;;;;;5019023;28;20799;-11
2021/03/17 05:33:10;;;;;;;12.83;11.67;;;;;;;;;;5006516;28;20747;-9
2021/03/17 05:35:38;;;;;;;12.53;11.40;;;;;;;;;;5006669;28;20470;-10
2021/03/17 05:38:05;;;;;;;11.67;10.57;;;;;;;;;;5005955;28;20672;-11
2021/03/17 05:40:33;;;;;;;11.80;10.80;;;;;;;;;;4992121;28;20527;-12
2021/03/17 05:43:00;;;;;;;11.40;10.40;;;;;;;;;;5006537;28;20439;-11
2021/03/17 05:45:28;;;;;;;11.20;10.20;;;;;;;;;;5007255;28;20498;-10
2021/03/17 05:47:56;;;;;;;11.90;11.00;;;;;;;;;;5000989;28;20443;-11
2021/03/17 05:50:24;;;;;;;11.73;10.80;;;;;;;;;;5001453;28;20459;-10
2021/03/17 05:52:51;;;;;;;12.20;11.10;;;;;;;;;;4999576;28;20907;-11
2021/03/17 05:55:18;;;;;;;12.70;11.53;;;;;;;;;;5000051;28;20664;-11
2021/03/17 05:57:46;;;;;;;14.47;13.17;;;;;;;;;;4998565;28;20466;-11
2021/03/17 06:00:14;;;;;;;14.50;13.10;;;;;;;;;;5002167;28;20536;-11
2021/03/17 06:02:42;;;;;;;13.97;12.63;;;;;;;;;;5002402;28;20763;-9
2021/03/17 06:05:10;;;;;;;11.70;10.70;;;;;;;;;;4999711;28;20660;-10
2021/03/17 06:07:41;;;;;;;12.23;10.93;;;;;;;;;;4996889;28;20847;-9
2021/03/17 06:10:10;;;;;;;12.63;11.57;;;;;;;;;;5012809;28;20457;-11
2021/03/17 06:12:41;;;;;;;13.83;12.57;;;;;;;;;;5019324;28;20458;-10
2021/03/17 06:15:09;;;;;;;12.63;11.43;;;;;;;;;;5020770;28;20739;-12
2021/03/17 06:17:37;;;;;;;13.13;11.87;;;;;;;;;;5018437;28;20985;-9
2021/03/17 06:20:06;;;;;;;13.00;11.70;;;;;;;;;;5002140;28;20451;-11
2021/03/17 06:22:34;;;;;;;13.33;12.00;;;;;;;;;;5015672;28;20464;-10
2021/03/17 06:25:03;;;;;;;12.33;10.93;;;;;;;;;;5017311;28;20537;-11
2021/03/17 06:27:30;;;;;;;13.27;12.07;;;;;;;;;;5015003;28;20619;-11
2021/03/17 06:29:58;;;;;;;13.77;12.47;;;;;;;;;;5013515;28;20509;-11
2021/03/17 06:32:26;;;;;;;20.03;17.93;;;;;;;;;;5019532;28;20736;-12
2021/03/17 06:34:53;;;;;;;14.57;13.20;;;;;;;;;;5016605;28;20449;-11
2021/03/17 06:37:34;;;;;;;14.20;12.70;;;;;;;;;;5018235;28;20442;-12
2021/03/17 06:40:01;;;;;;;21.03;16.00;;;;;;;;;;5016229;28;20863;-11
2021/03/17 06:42:39;;;;;;;15.57;13.97;;;;;;;;;;5015312;28;20465;-11
2021/03/17 06:45:07;;;;;;;16.53;14.93;;;;;;;;;;5014244;28;20652;-11
2021/03/17 06:47:36;;;;;;;16.03;14.50;;;;;;;;;;5008761;28;20450;-12
2021/03/17 06:50:07;;;;;;;17.80;14.70;;;;;;;;;;4994277;28;20442;-10
2021/03/17 06:52:36;;;;;;;14.80;12.43;;;;;;;;;;5010049;28;21054;-11
2021/03/17 06:55:04;;;;;;;14.77;13.27;;;;;;;;;;5006360;28;20721;-10
2021/03/17 06:57:31;;;;;;;15.10;13.67;;;;;;;;;;5008488;28;20442;-11
2021/03/17 07:00:17;;;;;;;15.87;14.00;;;;;;;;;;4985391;28;20442;-10
2021/03/17 07:02:50;;;;;;;13.67;12.27;;;;;;;;;;5002784;28;21059;-12
2021/03/17 07:05:17;;;;;;;14.53;13.10;;;;;;;;;;5004940;28;21021;-12
2021/03/17 07:07:51;;;;;;;14.73;13.33;;;;;;;;;;5004713;28;20541;-11
2021/03/17 07:10:28;;;;;;;17.30;15.70;;;;;;;;;;5007055;28;20632;-10
2021/03/17 07:12:56;;;;;;;15.80;14.37;;;;;;;;;;5001305;28;21377;-11
2021/03/17 07:15:23;;;;;;;17.20;15.50;;;;;;;;;;4998007;28;20536;-10
2021/03/17 07:17:51;;;;;;;19.03;17.13;;;;;;;;;;4998469;28;20800;-11
2021/03/17 07:20:33;;;;;;;14.37;12.97;;;;;;;;;;5002483;28;20504;-11
2021/03/17 07:23:20;;;;;;;15.13;13.57;;;;;;;;;;5000017;28;20625;-11
2021/03/17 07:26:02;;;;;;;14.17;12.80;;;;;;;;;;5000983;28;20668;-10
2021/03/17 07:28:29;;;;;;;21.53;18.53;;;;;;;;;;4991900;28;21005;-10
2021/03/17 07:30:55;;;;;;;18.67;16.80;;;;;;;;;;4978664;28;20443;-10
2021/03/17 07:33:24;;;;;;;17.50;15.70;;;;;;;;;;4997317;28;20779;-11
2021/03/17 07:35:51;;;;;;;19.57;17.47;;;;;;;;;;4997152;28;20454;-11
2021/03/17 07:38:20;;;;;;;17.30;15.50;;;;;;;;;;5003552;28;20450;-11
2021/03/17 07:40:48;;;;;;;17.30;15.60;;;;;;;;;;4971432;28;20755;-11
2021/03/17 07:43:15;;;;;;;17.23;15.47;;;;;;;;;;4990085;28;20443;-12
2021/03/17 07:45:43;;;;;;;18.60;16.70;;;;;;;;;;5000990;28;20450;-12
2021/03/17 07:48:11;;;;;;;17.70;15.97;;;;;;;;;;4991054;28;20461;-11
2021/03/17 07:50:39;;;;;;;15.13;13.50;;;;;;;;;;4981369;28;20686;-11
2021/03/17 07:53:08;;;;;;;15.60;13.83;;;;;;;;;;4982769;28;20471;-11
2021/03/17 07:55:39;;;;;;;21.87;15.67;;;;;;;;;;4986207;28;20512;-10
2021/03/17 07:58:07;;;;;;;17.27;15.60;;;;;;;;;;4997218;28;20446;-11
2021/03/17 08:00:34;;;;;;;17.23;15.47;;;;;;;;;;4983964;28;20450;-11
2021/03/17 08:03:02;;;;;;;19.13;17.23;;;;;;;;;;4980403;28;20443;-13
2021/03/17 08:05:29;;;;;;;20.80;18.17;;;;;;;;;;4985052;28;20450;-13
2021/03/17 08:07:57;;;;;;;21.03;17.13;;;;;;;;;;4990079;28;20888;-12
2021/03/17 08:10:25;;;;;;;20.90;18.10;;;;;;;;;;4975050;28;20885;-12
2021/03/17 08:12:54;;;;;;;22.40;20.00;;;;;;;;;;4976480;28;20942;-12
2021/03/17 08:15:22;;;;;;;17.90;14.70;;;;;;;;;;4963021;28;20774;-12
2021/03/17 08:17:50;;;;;;;21.50;18.73;;;;;;;;;;5007288;28;20556;-11
2021/03/17 08:20:17;;;;;;;25.60;23.10;;;;;;;;;;4988347;28;20466;-13
2021/03/17 08:22:44;;;;;;;22.17;18.70;;;;;;;;;;4996087;28;20441;-13
2021/03/17 08:25:12;;;;;;;24.33;20.53;;;;;;;;;;4994366;28;20434;-13
2021/03/17 08:27:39;;;;;;;18.20;15.27;;;;;;;;;;4996768;28;21366;-11
2021/03/17 08:30:12;;;;;;;19.53;17.53;;;;;;;;;;4980725;28;21208;-11
2021/03/17 08:32:52;;;;;;;18.93;16.90;;;;;;;;;;4975287;28;20481;-10
2021/03/17 08:35:20;;;;;;;20.23;15.50;;;;;;;;;;4979804;28;21499;-11
2021/03/17 08:37:47;;;;;;;16.57;14.70;;;;;;;;;;4976021;28;20816;-12
2021/03/17 08:40:29;;;;;;;17.00;14.47;;;;;;;;;;4978556;28;20474;-11
2021/03/17 08:42:56;;;;;;;15.77;13.80;;;;;;;;;;4982972;28;20482;-12
2021/03/17 08:45:25;;;;;;;15.07;13.47;;;;;;;;;;4999051;28;20477;-10
2021/03/17 08:47:52;;;;;;;18.03;13.13;;;;;;;;;;5005064;28;20453;-12
2021/03/17 08:50:20;;;;;;;12.97;11.70;;;;;;;;;;4982243;28;20482;-11
2021/03/17 08:52:48;;;;;;;16.00;13.83;;;;;;;;;;4973537;28;20585;-11
2021/03/17 08:55:17;;;;;;;12.90;10.77;;;;;;;;;;4982495;28;20711;-11
2021/03/17 08:58:05;;;;;;;14.50;13.10;;;;;;;;;;4986710;28;21162;-11
2021/03/17 09:00:51;;;;;;;12.33;10.80;;;;;;;;;;4984677;28;20848;-11
2021/03/17 09:03:38;;;;;;;11.67;10.47;;;;;;;;;;4998930;28;20449;-10
2021/03/17 09:06:06;;;;;;;10.40;9.50;;;;;;;;;;4999854;28;20535;-10
2021/03/17 09:08:45;;;;;;;10.87;9.87;;;;;;;;;;5000243;28;20597;-11
2021/03/17 09:11:37;;;;;;;12.17;10.20;;;;;;;;;;4998092;28;20434;-12
2021/03/17 09:14:06;;;;;;;9.67;8.93;;;;;;;;;;4993873;28;20497;-12
2021/03/17 09:16:34;;;;;;;9.77;9.17;;;;;;;;;;5001417;28;20443;-11
2021/03/17 09:19:06;;;;;;;8.37;7.93;;;;;;;;;;4977784;28;20487;-11
2021/03/17 09:21:34;;;;;;;8.70;8.30;;;;;;;;;;5015638;28;20497;-10
2021/03/17 09:24:01;;;;;;;9.20;8.40;;;;;;;;;;4987481;28;20488;-11
2021/03/17 09:26:28;;;;;;;7.90;7.50;;;;;;;;;;5017117;28;20568;-11
2021/03/17 09:28:55;;;;;;;7.90;7.60;;;;;;;;;;4991133;28;20446;-12
2021/03/17 09:31:23;;;;;;;9.10;8.40;;;;;;;;;;4995411;28;20447;-12
2021/03/17 09:33:50;;;;;;;8.67;8.17;;;;;;;;;;5000382;28;20522;-11
2021/03/17 09:36:19;;;;;;;9.23;8.83;;;;;;;;;;4999208;28;20485;-11
2021/03/17 09:38:47;;;;;;;8.90;8.40;;;;;;;;;;5000365;28;20443;-12
2021/03/17 09:41:15;;;;;;;8.60;8.20;;;;;;;;;;5003739;28;20434;-10
2021/03/17 09:43:44;;;;;;;9.50;8.90;;;;;;;;;;5002802;28;20439;-11
2021/03/17 09:46:18;;;;;;;9.13;8.47;;;;;;;;;;5001205;28;20449;-13
2021/03/17 09:48:45;;;;;;;8.53;8.03;;;;;;;;;;4982035;28;20458;-11
2021/03/17 09:51:15;;;;;;;9.23;8.83;;;;;;;;;;4989544;28;20925;-12
2021/03/17 09:53:44;;;;;;;8.70;8.10;;;;;;;;;;4962743;28;20822;-11
2021/03/17 09:56:11;;;;;;;8.70;8.00;;;;;;;;;;4998799;28;20794;-12
2021/03/17 09:58:39;;;;;;;8.47;8.10;;;;;;;;;;5000919;28;20509;-12
2021/03/17 10:01:10;;;;;;;7.43;7.13;;;;;;;;;;4999093;28;21298;-13
2021/03/17 10:03:37;;;;;;;6.97;6.67;;;;;;;;;;4995955;28;20438;-12
2021/03/17 10:06:04;;;;;;;8.03;7.63;;;;;;;;;;4996641;28;20459;-12
2021/03/17 10:08:33;;;;;;;8.20;7.57;;;;;;;;;;4989321;28;20784;-11
2021/03/17 10:11:02;;;;;;;7.53;7.10;;;;;;;;;;4981492;28;20450;-11
2021/03/17 10:13:34;;;;;;;6.80;6.50;;;;;;;;;;4981839;28;20463;-10
2021/03/17 10:16:01;;;;;;;7.63;7.23;;;;;;;;;;4963520;28;20447;-10
2021/03/17 10:18:29;;;;;;;7.40;7.20;;;;;;;;;;4974471;28;21144;-11
2021/03/17 10:20:56;;;;;;;8.90;8.40;;;;;;;;;;5000325;28;20772;-11
2021/03/17 10:23:23;;;;;;;8.50;8.20;;;;;;;;;;4996091;28;20938;-12
2021/03/17 10:25:50;;;;;;;7.97;7.40;;;;;;;;;;4998504;28;20450;-12
2021/03/17 10:28:20;;;;;;;8.17;7.67;;;;;;;;;;4994817;28;20449;-11
2021/03/17 10:30:49;;;;;;;7.60;7.27;;;;;;;;;;4998287;28;21040;-14
2021/03/17 10:33:18;;;;;;;7.80;7.50;;;;;;;;;;4999949;28;20473;-12
2021/03/17 10:35:45;;;;;;;8.30;7.80;;;;;;;;;;5001602;28;20454;-12
2021/03/17 10:38:12;;;;;;;7.27;6.97;;;;;;;;;;5003553;28;20475;-10
2021/03/17 10:40:40;;;;;;;7.33;7.03;;;;;;;;;;4998773;28;20832;-11
2021/03/17 10:43:08;;;;;;;8.00;7.50;;;;;;;;;;4999513;28;20545;-11
2021/03/17 10:45:44;;;;;;;7.00;6.80;;;;;;;;;;5001266;28;20443;-11
2021/03/17 10:48:11;;;;;;;8.33;7.73;;;;;;;;;;4998907;28;20457;-11
2021/03/17 10:50:39;;;;;;;7.20;6.80;;;;;;;;;;4977981;28;20536;-10
2021/03/17 10:53:15;;;;;;;7.33;7.03;;;;;;;;;;4998988;28;21215;-12
2021/03/17 10:55:42;;;;;;;6.90;6.53;;;;;;;;;;4999385;28;20441;-12
2021/03/17 10:58:09;;;;;;;7.40;7.07;;;;;;;;;;4997245;28;20442;-11
2021/03/17 11:00:37;;;;;;;7.77;7.40;;;;;;;;;;4979141;28;20884;-11
2021/03/17 11:03:21;;;;;;;6.63;6.33;;;;;;;;;;5000773;28;20500;-11
2021/03/17 11:05:48;;;;;;;6.80;6.50;;;;;;;;;;5002240;28;21247;-11
2021/03/17 11:08:17;;;;;;;7.07;6.80;;;;;;;;;;5000868;28;20896;-11
2021/03/17 11:10:57;;;;;;;7.30;7.10;;;;;;;;;;4987312;28;20460;-11
2021/03/17 11:13:25;;;;;;;7.43;7.10;;;;;;;;;;5003903;28;20465;-11
2021/03/17 11:15:56;;;;;;;7.10;6.90;;;;;;;;;;5006330;28;20454;-11
2021/03/17 11:18:24;;;;;;;7.20;6.80;;;;;;;;;;5005783;28;20447;-12
2021/03/17 11:20:52;;;;;;;7.00;6.70;;;;;;;;;;4995352;28;20537;-11
2021/03/17 11:23:20;;;;;;;6.83;6.53;;;;;;;;;;4986000;28;20759;-11
2021/03/17 11:25:47;;;;;;;7.00;6.73;;;;;;;;;;4990428;28;20764;-11
2021/03/17 11:28:15;;;;;;;7.63;7.33;;;;;;;;;;4998904;28;20916;-12
2021/03/17 11:30:44;;;;;;;7.40;7.00;;;;;;;;;;5000846;28;20446;-10
2021/03/17 11:33:12;;;;;;;7.23;6.73;;;;;;;;;;5008405;28;20477;-12
2021/03/17 11:35:40;;;;;;;7.83;7.23;;;;;;;;;;5027057;28;20457;-12
2021/03/17 11:38:07;;;;;;;6.93;6.53;;;;;;;;;;5024404;28;20453;-12
2021/03/17 11:40:34;;;;;;;8.20;7.90;;;;;;;;;;5020930;28;20471;-12
2021/03/17 11:43:05;;;;;;;7.17;6.50;;;;;;;;;;5012538;28;20475;-10
2021/03/17 11:45:32;;;;;;;7.40;6.80;;;;;;;;;;4983864;28;20450;-11
2021/03/17 11:48:01;;;;;;;6.10;5.90;;;;;;;;;;4967263;28;20452;-12
2021/03/17 11:50:30;;;;;;;7.00;6.37;;;;;;;;;;4998017;28;20463;-12
2021/03/17 11:52:59;;;;;;;6.60;6.30;;;;;;;;;;4999719;28;20498;-12
2021/03/17 11:55:26;;;;;;;7.10;6.50;;;;;;;;;;4985993;28;20747;-13
2021/03/17 11:57:53;;;;;;;7.90;7.33;;;;;;;;;;4968759;28;20443;-12
2021/03/17 12:00:29;;;;;;;7.77;7.33;;;;;;;;;;5003110;28;20458;-13
2021/03/17 12:02:57;;;;;;;7.00;6.70;;;;;;;;;;5014808;28;20453;-13
2021/03/17 12:05:24;;;;;;;6.40;6.20;;;;;;;;;;5046370;28;20445;-13
2021/03/17 12:07:51;;;;;;;7.17;6.80;;;;;;;;;;5047954;28;20861;-13
2021/03/17 12:10:19;;;;;;;7.23;6.90;;;;;;;;;;5030790;28;20929;-13
2021/03/17 12:12:50;;;;;;;8.20;8.00;;;;;;;;;;5049755;28;20817;-13
2021/03/17 12:15:18;;;;;;;7.27;6.97;;;;;;;;;;5032179;28;20522;-13
2021/03/17 12:17:46;;;;;;;8.00;7.70;;;;;;;;;;5027599;28;20537;-12
2021/03/17 12:20:15;;;;;;;6.90;6.60;;;;;;;;;;5005935;28;20455;-13
2021/03/17 12:22:42;;;;;;;7.60;7.20;;;;;;;;;;4975575;28;20455;-14
2021/03/17 12:25:11;;;;;;;7.40;7.10;;;;;;;;;;5007331;28;20439;-13
2021/03/17 12:27:40;;;;;;;6.77;6.57;;;;;;;;;;5007509;28;20444;-13
2021/03/17 12:30:16;;;;;;;8.27;7.67;;;;;;;;;;5006373;28;20469;-13
2021/03/17 12:32:43;;;;;;;7.27;6.97;;;;;;;;;;5007627;28;20439;-13
2021/03/17 12:35:12;;;;;;;7.57;7.07;;;;;;;;;;5006961;28;20436;-13
2021/03/17 12:37:40;;;;;;;8.80;7.00;;;;;;;;;;5005039;28;20512;-14
2021/03/17 12:40:08;;;;;;;8.23;7.90;;;;;;;;;;5004879;28;20466;-13
2021/03/17 12:42:36;;;;;;;6.80;6.60;;;;;;;;;;5004835;28;20470;-13
2021/03/17 12:45:05;;;;;;;7.23;7.00;;;;;;;;;;5006836;28;20519;-12
2021/03/17 12:47:34;;;;;;;7.87;7.43;;;;;;;;;;5005324;28;20454;-13
2021/03/17 12:50:01;;;;;;;7.77;7.47;;;;;;;;;;4996668;28;20438;-13
2021/03/17 12:52:29;;;;;;;7.37;7.00;;;;;;;;;;5003268;28;20486;-13
2021/03/17 12:54:56;;;;;;;7.07;6.67;;;;;;;;;;5003813;28;20960;-12
2021/03/17 12:57:23;;;;;;;7.10;6.90;;;;;;;;;;5021022;28;20438;-13
2021/03/17 12:59:50;;;;;;;7.03;6.60;;;;;;;;;;4967593;28;20447;-12
2021/03/17 13:02:18;;;;;;;6.87;6.57;;;;;;;;;;4999264;28;20534;-13
2021/03/17 13:04:45;;;;;;;8.63;7.10;;;;;;;;;;4983089;28;21205;-13
2021/03/17 13:07:14;;;;;;;6.73;6.43;;;;;;;;;;5002262;28;20460;-13
2021/03/17 13:09:41;;;;;;;7.53;7.20;;;;;;;;;;4990161;28;20463;-13
2021/03/17 13:12:10;;;;;;;7.50;7.10;;;;;;;;;;4983063;28;20816;-12
2021/03/17 13:14:37;;;;;;;7.57;7.13;;;;;;;;;;4981414;28;20494;-13
2021/03/17 13:17:04;;;;;;;7.10;6.90;;;;;;;;;;4982728;28;20525;-12
2021/03/17 13:19:33;;;;;;;8.03;7.63;;;;;;;;;;4998565;28;21329;-12
2021/03/17 13:22:00;;;;;;;6.90;6.50;;;;;;;;;;4992034;28;20483;-12
2021/03/17 13:24:27;;;;;;;7.20;6.93;;;;;;;;;;4982506;28;20486;-13
2021/03/17 13:26:54;;;;;;;9.37;7.60;;;;;;;;;;4997099;28;20459;-13
2021/03/17 13:29:21;;;;;;;7.80;7.40;;;;;;;;;;4997326;28;20443;-13
2021/03/17 13:31:49;;;;;;;7.60;7.23;;;;;;;;;;4996928;28;20731;-13
2021/03/17 13:34:16;;;;;;;7.23;6.83;;;;;;;;;;4981236;28;20471;-12
2021/03/17 13:36:44;;;;;;;6.90;6.60;;;;;;;;;;4978282;28;20490;-13
2021/03/17 13:39:11;;;;;;;7.53;7.23;;;;;;;;;;4998626;28;20478;-13
2021/03/17 13:41:38;;;;;;;8.10;7.60;;;;;;;;;;4977280;28;20535;-12
2021/03/17 13:44:05;;;;;;;7.83;7.43;;;;;;;;;;4997699;28;20599;-13
2021/03/17 13:46:33;;;;;;;7.60;7.20;;;;;;;;;;4996199;28;20889;-12
2021/03/17 13:49:00;;;;;;;8.30;7.60;;;;;;;;;;4998750;28;20829;-13
2021/03/17 13:51:27;;;;;;;7.83;7.43;;;;;;;;;;4977794;28;20562;-12
2021/03/17 13:53:55;;;;;;;10.87;10.20;;;;;;;;;;4998897;28;20525;-13
2021/03/17 13:56:25;;;;;;;7.43;7.13;;;;;;;;;;4999615;28;20451;-12
2021/03/17 13:58:52;;;;;;;7.53;7.23;;;;;;;;;;4998756;28;20450;-12
2021/03/17 14:01:22;;;;;;;7.67;7.37;;;;;;;;;;4997069;28;20435;-12
2021/03/17 14:03:49;;;;;;;8.17;7.60;;;;;;;;;;4999233;28;20486;-13
2021/03/17 14:06:16;;;;;;;8.90;8.10;;;;;;;;;;5000270;28;20800;-12
2021/03/17 14:08:43;;;;;;;7.27;6.97;;;;;;;;;;4998525;28;20439;-12
2021/03/17 14:11:11;;;;;;;8.13;7.73;;;;;;;;;;4999179;28;20699;-13
2021/03/17 14:13:38;;;;;;;7.77;7.27;;;;;;;;;;4997798;28;20538;-14
2021/03/17 14:16:05;;;;;;;12.83;8.53;;;;;;;;;;5000576;28;20842;-13
2021/03/17 14:18:32;;;;;;;7.83;7.37;;;;;;;;;;5000244;28;20858;-13
2021/03/17 14:20:59;;;;;;;9.10;8.40;;;;;;;;;;4999457;28;20491;-14
2021/03/17 14:23:26;;;;;;;8.07;7.63;;;;;;;;;;4998034;28;20694;-13
2021/03/17 14:25:59;;;;;;;8.07;7.47;;;;;;;;;;4983827;28;20971;-11
2021/03/17 14:28:27;;;;;;;8.60;8.00;;;;;;;;;;4980442;28;20842;-11
2021/03/17 14:30:55;;;;;;;7.80;7.33;;;;;;;;;;4981586;28;20448;-13
2021/03/17 14:33:22;;;;;;;8.17;7.67;;;;;;;;;;5000532;28;20511;-12
2021/03/17 14:35:50;;;;;;;8.77;8.27;;;;;;;;;;5002718;28;20456;-13
2021/03/17 14:38:17;;;;;;;8.60;8.20;;;;;;;;;;4986995;28;20959;-12
2021/03/17 14:40:44;;;;;;;8.43;7.80;;;;;;;;;;5010978;28;20547;-12
2021/03/17 14:43:11;;;;;;;7.70;7.30;;;;;;;;;;5010193;28;20808;-12
2021/03/17 14:45:38;;;;;;;7.27;6.77;;;;;;;;;;4993564;28;20444;-15
2021/03/17 14:48:06;;;;;;;7.20;6.77;;;;;;;;;;4990733;28;20511;-12
2021/03/17 14:50:36;;;;;;;6.80;6.50;;;;;;;;;;4993995;28;20467;-13